createdAt,value
2017-06-16T00:00:27.378Z,15.93
2017-06-16T00:01:36.594Z,15.86
2017-06-16T00:02:45.802Z,15.84
2017-06-16T00:03:54.689Z,15.8
2017-06-16T00:05:03.585Z,15.8
2017-06-16T00:06:13.173Z,15.8
2017-06-16T00:07:22.384Z,15.8
2017-06-16T00:08:31.596Z,15.67
2017-06-16T00:09:40.484Z,15.69
2017-06-16T00:10:49.374Z,15.76
2017-06-16T00:11:58.462Z,15.68
2017-06-16T00:13:07.357Z,15.74
2017-06-16T00:14:16.573Z,15.65
2017-06-16T00:15:25.461Z,15.59
2017-06-16T00:16:34.350Z,15.68
2017-06-16T00:17:43.564Z,15.59
2017-06-16T00:18:52.452Z,15.64
2017-06-16T00:20:01.669Z,15.54
2017-06-16T00:21:11.206Z,15.53
2017-06-16T00:22:20.096Z,15.53
2017-06-16T00:23:29.135Z,15.56
2017-06-16T00:24:38.669Z,15.53
2017-06-16T00:25:47.879Z,15.56
2017-06-16T00:26:57.109Z,15.67
2017-06-16T00:28:05.999Z,15.6
2017-06-16T00:29:15.264Z,15.65
2017-06-16T00:30:24.480Z,15.59
2017-06-16T00:31:33.369Z,15.65
2017-06-16T00:32:42.578Z,15.68
2017-06-16T00:33:51.468Z,15.62
2017-06-16T00:35:00.835Z,15.65
2017-06-16T00:36:09.723Z,15.69
2017-06-16T00:37:18.609Z,15.62
2017-06-16T00:38:27.492Z,15.57
2017-06-16T00:39:36.416Z,15.64
2017-06-16T00:40:45.454Z,15.67
2017-06-16T00:41:54.685Z,15.71
2017-06-16T00:43:03.674Z,15.64
2017-06-16T00:44:12.563Z,15.62
2017-06-16T00:45:21.770Z,15.64
2017-06-16T00:46:30.808Z,15.74
2017-06-16T00:47:39.697Z,15.78
2017-06-16T00:48:49.561Z,15.72
2017-06-16T00:49:58.454Z,15.68
2017-06-16T00:51:07.344Z,15.78
2017-06-16T00:52:16.284Z,15.65
2017-06-16T00:53:25.498Z,15.75
2017-06-16T00:54:34.384Z,15.75
2017-06-16T00:55:43.273Z,15.76
2017-06-16T00:56:52.826Z,15.78
2017-06-16T00:58:02.521Z,15.75
2017-06-16T00:59:11.409Z,15.83
2017-06-16T01:00:20.293Z,15.75
2017-06-16T01:01:29.181Z,15.82
2017-06-16T01:02:38.396Z,15.8
2017-06-16T01:03:47.284Z,15.83
2017-06-16T01:04:56.175Z,15.89
2017-06-16T01:06:05.062Z,15.87
2017-06-16T01:07:13.951Z,15.87
2017-06-16T01:08:23.169Z,15.93
2017-06-16T01:09:32.534Z,15.86
2017-06-16T01:10:41.423Z,15.92
2017-06-16T01:11:50.634Z,16
2017-06-16T01:12:59.848Z,16.01
2017-06-16T01:14:08.738Z,15.87
2017-06-16T01:15:17.997Z,15.83
2017-06-16T01:16:26.885Z,15.78
2017-06-16T01:17:35.773Z,15.69
2017-06-16T01:18:44.990Z,15.59
2017-06-16T01:19:54.205Z,15.51
2017-06-16T01:21:03.468Z,15.49
2017-06-16T01:22:12.687Z,15.39
2017-06-16T01:23:21.575Z,15.39
2017-06-16T01:24:30.788Z,15.27
2017-06-16T01:25:39.674Z,15.21
2017-06-16T01:26:49.136Z,15.29
2017-06-16T01:27:58.674Z,15.21
2017-06-16T01:29:07.599Z,15.23
2017-06-16T01:30:16.488Z,15.19
2017-06-16T01:31:25.373Z,15.21
2017-06-16T01:32:34.409Z,15.17
2017-06-16T01:33:43.948Z,15.19
2017-06-16T01:34:53.162Z,15.25
2017-06-16T01:36:02.047Z,15.21
2017-06-16T01:37:11.260Z,15.28
2017-06-16T01:38:20.146Z,15.28
2017-06-16T01:39:29.030Z,15.16
2017-06-16T01:40:37.916Z,15.11
2017-06-16T01:41:46.806Z,15.14
2017-06-16T01:42:55.696Z,15.19
2017-06-16T01:44:04.735Z,15.28
2017-06-16T01:45:14.272Z,15.29
2017-06-16T01:46:23.169Z,15.31
2017-06-16T01:47:32.058Z,15.23
2017-06-16T01:48:40.945Z,15.28
2017-06-16T01:49:50.143Z,15.19
2017-06-16T01:50:59.349Z,15.14
2017-06-16T01:52:08.236Z,15.14
2017-06-16T01:53:17.122Z,15.14
2017-06-16T01:54:26.008Z,15.17
2017-06-16T01:55:35.049Z,15.19
2017-06-16T01:56:43.939Z,15.1
2017-06-16T01:57:52.833Z,15.25
2017-06-16T01:59:02.049Z,15.17
2017-06-16T02:00:10.938Z,15.17
2017-06-16T02:01:20.301Z,15.29
2017-06-16T02:02:29.189Z,15.23
2017-06-16T02:03:38.078Z,15.21
2017-06-16T02:04:46.964Z,15.2
2017-06-16T02:05:56.170Z,15.1
2017-06-16T02:07:05.409Z,15.16
2017-06-16T02:08:14.295Z,15.16
2017-06-16T02:09:23.189Z,15.14
2017-06-16T02:10:32.074Z,15.23
2017-06-16T02:11:40.962Z,15.1
2017-06-16T02:12:50.153Z,15.23
2017-06-16T02:13:59.038Z,15.27
2017-06-16T02:15:08.251Z,15.13
2017-06-16T02:16:17.460Z,15.11
2017-06-16T02:17:26.351Z,15.17
2017-06-16T02:18:35.243Z,15.13
2017-06-16T02:19:44.129Z,15.17
2017-06-16T02:20:53.346Z,15.14
2017-06-16T02:22:02.566Z,15.11
2017-06-16T02:23:11.785Z,15.16
2017-06-16T02:24:20.825Z,15.11
2017-06-16T02:25:29.712Z,15.11
2017-06-16T02:26:38.603Z,15.14
2017-06-16T02:27:47.817Z,15.13
2017-06-16T02:28:57.044Z,15.21
2017-06-16T02:30:06.681Z,15.19
2017-06-16T02:31:15.616Z,15.23
2017-06-16T02:32:24.828Z,15.2
2017-06-16T02:33:34.043Z,15.11
2017-06-16T02:34:43.261Z,15.17
2017-06-16T02:35:52.488Z,15.11
2017-06-16T02:37:02.023Z,15.07
2017-06-16T02:38:11.237Z,15.07
2017-06-16T02:39:20.454Z,15.13
2017-06-16T02:40:29.344Z,15.2
2017-06-16T02:41:38.387Z,15.1
2017-06-16T02:42:47.599Z,15.17
2017-06-16T02:43:56.525Z,15.09
2017-06-16T02:45:05.416Z,15.07
2017-06-16T02:46:14.305Z,14.99
2017-06-16T02:47:23.670Z,15.02
2017-06-16T02:48:32.882Z,14.95
2017-06-16T02:49:41.775Z,14.94
2017-06-16T02:50:50.985Z,14.91
2017-06-16T02:51:59.872Z,14.89
2017-06-16T02:53:08.857Z,14.94
2017-06-16T02:54:18.395Z,14.84
2017-06-16T02:55:27.280Z,14.92
2017-06-16T02:56:36.168Z,14.89
2017-06-16T02:57:45.701Z,14.81
2017-06-16T02:58:55.254Z,14.77
2017-06-16T03:00:04.142Z,14.77
2017-06-16T03:01:13.029Z,14.8
2017-06-16T03:02:22.241Z,14.72
2017-06-16T03:03:31.124Z,14.69
2017-06-16T03:04:40.056Z,14.77
2017-06-16T03:05:48.950Z,14.77
2017-06-16T03:06:57.840Z,14.83
2017-06-16T03:08:06.731Z,14.83
2017-06-16T03:09:15.946Z,14.81
2017-06-16T03:10:24.987Z,14.7
2017-06-16T03:11:33.875Z,14.69
2017-06-16T03:12:43.085Z,14.77
2017-06-16T03:13:51.972Z,14.83
2017-06-16T03:15:00.860Z,14.83
2017-06-16T03:16:10.379Z,14.91
2017-06-16T03:17:19.264Z,14.88
2017-06-16T03:18:28.150Z,14.83
2017-06-16T03:19:37.038Z,14.89
2017-06-16T03:20:45.931Z,14.88
2017-06-16T03:21:54.969Z,14.94
2017-06-16T03:23:04.179Z,14.95
2017-06-16T03:24:13.716Z,14.96
2017-06-16T03:25:22.602Z,14.92
2017-06-16T03:26:31.818Z,14.92
2017-06-16T03:27:41.177Z,14.95
2017-06-16T03:28:50.062Z,14.94
2017-06-16T03:29:58.951Z,14.98
2017-06-16T03:31:08.481Z,14.99
2017-06-16T03:32:17.695Z,15.02
2017-06-16T03:33:26.911Z,15.03
2017-06-16T03:34:35.802Z,15.03
2017-06-16T03:35:44.689Z,14.98
2017-06-16T03:36:54.226Z,15.06
2017-06-16T03:38:03.438Z,15.02
2017-06-16T03:39:12.749Z,14.95
2017-06-16T03:40:21.644Z,14.94
2017-06-16T03:41:30.530Z,14.96
2017-06-16T03:42:39.739Z,14.99
2017-06-16T03:43:48.630Z,15.01
2017-06-16T03:44:57.997Z,15.01
2017-06-16T03:46:06.884Z,14.96
2017-06-16T03:47:15.778Z,14.99
2017-06-16T03:48:24.663Z,14.92
2017-06-16T03:49:33.550Z,15.02
2017-06-16T03:50:42.864Z,14.99
2017-06-16T03:51:52.078Z,14.84
2017-06-16T03:53:01.619Z,15.01
2017-06-16T03:54:10.509Z,14.92
2017-06-16T03:55:19.721Z,14.92
2017-06-16T03:56:29.034Z,14.84
2017-06-16T03:57:37.921Z,14.81
2017-06-16T03:58:47.136Z,14.8
2017-06-16T03:59:56.671Z,14.88
2017-06-16T04:01:05.557Z,14.94
2017-06-16T04:02:14.685Z,14.83
2017-06-16T04:03:23.569Z,14.84
2017-06-16T04:04:32.454Z,14.89
2017-06-16T04:05:41.346Z,14.96
2017-06-16T04:06:50.235Z,14.99
2017-06-16T04:07:59.272Z,15.01
2017-06-16T04:09:08.158Z,15.01
2017-06-16T04:10:17.048Z,15.02
2017-06-16T04:11:25.938Z,14.99
2017-06-16T04:12:35.153Z,14.99
2017-06-16T04:13:44.362Z,15.01
2017-06-16T04:14:53.251Z,14.98
2017-06-16T04:16:02.513Z,15.14
2017-06-16T04:17:11.722Z,15.17
2017-06-16T04:18:20.610Z,15.06
2017-06-16T04:19:29.649Z,15.16
2017-06-16T04:20:38.862Z,15.13
2017-06-16T04:21:48.076Z,15.1
2017-06-16T04:22:56.964Z,15.06
2017-06-16T04:24:06.499Z,15.02
2017-06-16T04:25:15.442Z,15.13
2017-06-16T04:26:24.335Z,14.96
2017-06-16T04:27:33.549Z,14.96
2017-06-16T04:28:42.434Z,14.96
2017-06-16T04:29:51.323Z,15.02
2017-06-16T04:31:00.634Z,14.94
2017-06-16T04:32:09.848Z,14.88
2017-06-16T04:33:19.061Z,14.91
2017-06-16T04:34:28.273Z,14.95
2017-06-16T04:35:37.486Z,14.99
2017-06-16T04:36:46.374Z,15.11
2017-06-16T04:37:55.262Z,15.13
2017-06-16T04:39:04.803Z,15.14
2017-06-16T04:40:13.691Z,15.23
2017-06-16T04:41:22.580Z,15.28
2017-06-16T04:42:31.569Z,15.21
2017-06-16T04:43:40.778Z,15.27
2017-06-16T04:44:49.666Z,15.25
2017-06-16T04:45:58.559Z,15.27
2017-06-16T04:47:07.772Z,15.36
2017-06-16T04:48:16.805Z,15.27
2017-06-16T04:49:25.692Z,15.32
2017-06-16T04:50:34.585Z,15.31
2017-06-16T04:51:43.471Z,15.35
2017-06-16T04:52:52.364Z,15.28
2017-06-16T04:54:01.402Z,15.35
2017-06-16T04:55:10.292Z,15.28
2017-06-16T04:56:19.179Z,15.28
2017-06-16T04:57:28.413Z,15.36
2017-06-16T04:58:37.630Z,15.35
2017-06-16T04:59:47.226Z,15.51
2017-06-16T05:00:56.115Z,15.41
2017-06-16T05:02:05.326Z,15.5
2017-06-16T05:03:14.210Z,15.49
2017-06-16T05:04:23.103Z,15.53
2017-06-16T05:05:32.317Z,15.5
2017-06-16T05:06:41.205Z,15.54
2017-06-16T05:07:50.100Z,15.57
2017-06-16T05:08:59.312Z,15.53
2017-06-16T05:10:08.201Z,15.6
2017-06-16T05:11:17.569Z,15.57
2017-06-16T05:12:26.455Z,15.62
2017-06-16T05:13:35.341Z,15.75
2017-06-16T05:14:44.226Z,15.69
2017-06-16T05:15:53.115Z,15.68
2017-06-16T05:17:02.153Z,15.67
2017-06-16T05:18:11.041Z,15.64
2017-06-16T05:19:20.257Z,15.68
2017-06-16T05:20:29.149Z,15.68
2017-06-16T05:21:38.360Z,15.67
2017-06-16T05:22:47.397Z,15.57
2017-06-16T05:23:56.288Z,15.54
2017-06-16T05:25:05.501Z,15.68
2017-06-16T05:26:14.391Z,15.62
2017-06-16T05:27:23.280Z,15.62
2017-06-16T05:28:32.797Z,15.6
2017-06-16T05:29:41.684Z,15.59
2017-06-16T05:30:50.575Z,15.62
2017-06-16T05:31:59.463Z,15.62
2017-06-16T05:33:08.677Z,15.6
2017-06-16T05:34:17.892Z,15.69
2017-06-16T05:35:26.783Z,15.64
2017-06-16T05:36:36.001Z,15.72
2017-06-16T05:37:44.888Z,15.64
2017-06-16T05:38:53.779Z,15.68
2017-06-16T05:40:02.820Z,15.72
2017-06-16T05:41:11.718Z,15.86
2017-06-16T05:42:20.607Z,15.87
2017-06-16T05:43:29.501Z,15.84
2017-06-16T05:44:38.713Z,15.84
2017-06-16T05:45:47.925Z,15.84
2017-06-16T05:46:56.811Z,15.9
2017-06-16T05:48:05.704Z,15.96
2017-06-16T05:49:14.591Z,16.01
2017-06-16T05:50:23.480Z,15.93
2017-06-16T05:51:33.444Z,15.93
2017-06-16T05:52:42.990Z,15.78
2017-06-16T05:53:52.209Z,15.89
2017-06-16T05:55:01.423Z,15.84
2017-06-16T05:56:10.638Z,16.01
2017-06-16T05:57:19.577Z,15.9
2017-06-16T05:58:28.464Z,15.93
2017-06-16T05:59:37.350Z,15.93
2017-06-16T06:00:46.559Z,15.94
2017-06-16T06:01:55.444Z,16.01
2017-06-16T06:03:04.766Z,15.97
2017-06-16T06:04:13.655Z,16.01
2017-06-16T06:05:22.544Z,16.08
2017-06-16T06:06:31.762Z,16.15
2017-06-16T06:07:40.978Z,16.07
2017-06-16T06:08:50.015Z,16.14
2017-06-16T06:09:58.905Z,16.08
2017-06-16T06:11:07.796Z,16.08
2017-06-16T06:12:17.349Z,16.05
2017-06-16T06:13:26.239Z,16.11
2017-06-16T06:14:35.427Z,16.23
2017-06-16T06:15:44.316Z,16.28
2017-06-16T06:16:53.527Z,16.2
2017-06-16T06:18:02.744Z,16.21
2017-06-16T06:19:11.633Z,16.17
2017-06-16T06:20:20.996Z,16.09
2017-06-16T06:21:29.885Z,16.21
2017-06-16T06:22:38.776Z,16.21
2017-06-16T06:23:47.664Z,16.21
2017-06-16T06:24:56.554Z,16.14
2017-06-16T06:26:06.073Z,16.15
2017-06-16T06:27:15.607Z,16.05
2017-06-16T06:28:25.148Z,16.05
2017-06-16T06:29:34.038Z,16.08
2017-06-16T06:30:42.931Z,16.04
2017-06-16T06:31:51.977Z,16.01
2017-06-16T06:33:00.867Z,16.17
2017-06-16T06:34:09.757Z,16.15
2017-06-16T06:35:18.687Z,16.23
2017-06-16T06:36:27.576Z,16.21
2017-06-16T06:37:36.714Z,16.25
2017-06-16T06:38:45.601Z,16.34
2017-06-16T06:39:54.500Z,16.31
2017-06-16T06:41:03.426Z,16.3
2017-06-16T06:42:12.983Z,16.23
2017-06-16T06:43:22.126Z,16.34
2017-06-16T06:44:31.663Z,16.33
2017-06-16T06:45:41.204Z,16.35
2017-06-16T06:46:50.744Z,16.39
2017-06-16T06:47:59.633Z,16.46
2017-06-16T06:49:08.569Z,16.46
2017-06-16T06:50:17.778Z,16.46
2017-06-16T06:51:26.994Z,16.46
2017-06-16T06:52:35.883Z,16.45
2017-06-16T06:53:45.096Z,16.46
2017-06-16T06:54:54.284Z,16.53
2017-06-16T06:56:03.182Z,16.64
2017-06-16T06:57:12.084Z,16.7
2017-06-16T06:58:21.313Z,16.7
2017-06-16T06:59:30.528Z,16.66
2017-06-16T07:00:39.666Z,16.68
2017-06-16T07:01:48.553Z,16.68
2017-06-16T07:02:57.444Z,16.71
2017-06-16T07:04:06.331Z,16.68
2017-06-16T07:05:15.551Z,16.71
2017-06-16T07:06:24.693Z,16.64
2017-06-16T07:07:33.581Z,16.71
2017-06-16T07:08:42.473Z,16.75
2017-06-16T07:09:51.364Z,16.73
2017-06-16T07:11:00.259Z,16.76
2017-06-16T07:12:09.527Z,16.83
2017-06-16T07:13:18.740Z,16.86
2017-06-16T07:14:27.632Z,16.94
2017-06-16T07:15:36.523Z,16.88
2017-06-16T07:16:45.409Z,16.94
2017-06-16T07:17:54.397Z,16.91
2017-06-16T07:19:03.291Z,16.96
2017-06-16T07:20:12.217Z,17.04
2017-06-16T07:21:21.152Z,17.08
2017-06-16T07:22:30.698Z,17.08
2017-06-16T07:23:39.936Z,17.07
2017-06-16T07:24:48.832Z,17.31
2017-06-16T07:25:57.725Z,17.23
2017-06-16T07:27:06.617Z,17.3
2017-06-16T07:28:15.504Z,17.31
2017-06-16T07:29:24.595Z,17.34
2017-06-16T07:30:33.486Z,17.37
2017-06-16T07:31:42.381Z,17.4
2017-06-16T07:32:51.288Z,17.46
2017-06-16T07:34:00.185Z,17.58
2017-06-16T07:35:09.230Z,17.49
2017-06-16T07:36:18.127Z,17.48
2017-06-16T07:37:27.667Z,17.55
2017-06-16T07:38:36.559Z,17.54
2017-06-16T07:39:45.771Z,17.66
2017-06-16T07:40:55.289Z,17.77
2017-06-16T07:42:04.192Z,17.74
2017-06-16T07:43:13.081Z,17.79
2017-06-16T07:44:21.973Z,17.77
2017-06-16T07:45:31.190Z,17.74
2017-06-16T07:46:40.230Z,17.68
2017-06-16T07:47:49.135Z,17.56
2017-06-16T07:48:58.352Z,17.55
2017-06-16T07:50:07.283Z,17.55
2017-06-16T07:51:16.179Z,17.51
2017-06-16T07:52:25.120Z,17.71
2017-06-16T07:53:34.011Z,17.64
2017-06-16T07:54:43.229Z,17.82
2017-06-16T07:55:52.451Z,17.84
2017-06-16T07:57:01.669Z,17.89
2017-06-16T07:58:10.894Z,18.05
2017-06-16T07:59:19.835Z,17.97
2017-06-16T08:00:29.064Z,17.99
2017-06-16T08:01:37.995Z,17.97
2017-06-16T08:02:47.220Z,17.89
2017-06-16T08:03:56.928Z,17.87
2017-06-16T08:05:05.824Z,17.86
2017-06-16T08:06:14.714Z,17.71
2017-06-16T08:07:23.609Z,17.79
2017-06-16T08:08:32.835Z,17.71
2017-06-16T08:09:42.023Z,17.63
2017-06-16T08:10:50.911Z,17.71
2017-06-16T08:12:00.125Z,17.68
2017-06-16T08:13:09.341Z,17.63
2017-06-16T08:14:18.230Z,17.56
2017-06-16T08:15:27.380Z,17.58
2017-06-16T08:16:36.304Z,17.51
2017-06-16T08:17:45.202Z,17.55
2017-06-16T08:18:54.093Z,17.68
2017-06-16T08:20:02.985Z,17.77
2017-06-16T08:21:11.925Z,17.89
2017-06-16T08:22:20.814Z,17.84
2017-06-16T08:23:30.032Z,18
2017-06-16T08:24:38.927Z,18.08
2017-06-16T08:25:48.148Z,18.14
2017-06-16T08:26:57.089Z,18.27
2017-06-16T08:28:06.308Z,18.23
2017-06-16T08:29:15.202Z,18.25
2017-06-16T08:30:24.096Z,18.15
2017-06-16T08:31:33.310Z,18.25
2017-06-16T08:32:42.351Z,18.15
2017-06-16T08:33:51.241Z,18.29
2017-06-16T08:35:00.139Z,18.3
2017-06-16T08:36:09.039Z,18.3
2017-06-16T08:37:18.256Z,18.32
2017-06-16T08:38:27.204Z,18.32
2017-06-16T08:39:36.102Z,18.44
2017-06-16T08:40:45.334Z,18.41
2017-06-16T08:41:54.224Z,18.47
2017-06-16T08:43:03.115Z,18.27
2017-06-16T08:44:12.484Z,18.27
2017-06-16T08:45:21.377Z,18.32
2017-06-16T08:46:30.277Z,18.26
2017-06-16T08:47:39.493Z,18.17
2017-06-16T08:48:48.710Z,18.11
2017-06-16T08:49:57.704Z,18.11
2017-06-16T08:51:06.598Z,18.14
2017-06-16T08:52:15.489Z,18.26
2017-06-16T08:53:24.385Z,18.33
2017-06-16T08:54:33.277Z,18.51
2017-06-16T08:55:42.322Z,18.54
2017-06-16T08:56:51.542Z,18.55
2017-06-16T08:58:00.441Z,18.57
2017-06-16T08:59:09.340Z,18.54
2017-06-16T09:00:18.560Z,18.58
2017-06-16T09:01:27.704Z,18.66
2017-06-16T09:02:36.608Z,18.8
2017-06-16T09:03:45.514Z,18.81
2017-06-16T09:04:54.405Z,18.92
2017-06-16T09:06:03.619Z,19.08
2017-06-16T09:07:12.660Z,19.07
2017-06-16T09:08:21.877Z,18.95
2017-06-16T09:09:31.095Z,18.9
2017-06-16T09:10:40.314Z,18.9
2017-06-16T09:11:49.205Z,18.98
2017-06-16T09:12:58.424Z,18.94
2017-06-16T09:14:07.322Z,18.88
2017-06-16T09:15:16.213Z,18.95
2017-06-16T09:16:25.104Z,18.99
2017-06-16T09:17:33.997Z,18.95
2017-06-16T09:18:43.090Z,19
2017-06-16T09:19:51.992Z,18.95
2017-06-16T09:21:00.881Z,18.94
2017-06-16T09:22:10.095Z,18.99
2017-06-16T09:23:18.991Z,19.04
2017-06-16T09:24:28.474Z,19.14
2017-06-16T09:25:37.375Z,19.21
2017-06-16T09:26:46.589Z,19.33
2017-06-16T09:27:55.821Z,19.5
2017-06-16T09:29:05.046Z,19.46
2017-06-16T09:30:14.045Z,19.46
2017-06-16T09:31:23.588Z,19.44
2017-06-16T09:32:32.492Z,19.39
2017-06-16T09:33:42.036Z,19.41
2017-06-16T09:34:50.929Z,19.37
2017-06-16T09:36:00.297Z,19.44
2017-06-16T09:37:09.514Z,19.39
2017-06-16T09:38:18.448Z,19.31
2017-06-16T09:39:27.346Z,19.25
2017-06-16T09:40:36.891Z,19.06
2017-06-16T09:41:46.691Z,19.06
2017-06-16T09:42:55.589Z,18.99
2017-06-16T09:44:04.485Z,18.8
2017-06-16T09:45:13.377Z,18.48
2017-06-16T09:46:22.603Z,18.21
2017-06-16T09:47:31.696Z,17.92
2017-06-16T09:48:40.913Z,17.55
2017-06-16T09:49:50.133Z,17.01
2017-06-16T09:50:59.027Z,16.68
2017-06-16T09:52:07.917Z,16.45
2017-06-16T09:53:16.859Z,16.23
2017-06-16T09:54:26.096Z,16.2
2017-06-16T09:55:35.311Z,16.17
2017-06-16T09:56:44.527Z,16.23
2017-06-16T09:57:53.418Z,16.14
2017-06-16T09:59:02.305Z,16.14
2017-06-16T10:00:11.199Z,16.02
2017-06-16T10:01:20.416Z,15.97
2017-06-16T10:02:29.309Z,16.02
2017-06-16T10:03:38.527Z,16.24
2017-06-16T10:04:47.416Z,16.07
2017-06-16T10:05:56.300Z,16.25
2017-06-16T10:07:05.845Z,16.35
2017-06-16T10:08:15.060Z,16.46
2017-06-16T10:09:24.277Z,16.49
2017-06-16T10:10:33.512Z,16.34
2017-06-16T10:11:42.402Z,16.43
2017-06-16T10:12:51.292Z,16.46
2017-06-16T10:14:00.233Z,16.34
2017-06-16T10:15:09.450Z,16.49
2017-06-16T10:16:18.743Z,16.46
2017-06-16T10:17:27.957Z,16.52
2017-06-16T10:18:36.848Z,16.58
2017-06-16T10:19:45.743Z,16.49
2017-06-16T10:20:54.629Z,16.64
2017-06-16T10:22:03.669Z,16.48
2017-06-16T10:23:12.562Z,16.5
2017-06-16T10:24:21.780Z,16.48
2017-06-16T10:25:31.318Z,16.57
2017-06-16T10:26:40.206Z,16.48
2017-06-16T10:27:49.101Z,16.48
2017-06-16T10:28:57.989Z,16.5
2017-06-16T10:30:06.876Z,16.52
2017-06-16T10:31:15.766Z,16.56
2017-06-16T10:32:24.657Z,16.61
2017-06-16T10:33:33.595Z,16.56
2017-06-16T10:34:42.485Z,16.48
2017-06-16T10:35:51.700Z,16.34
2017-06-16T10:37:00.917Z,16.43
2017-06-16T10:38:10.133Z,16.46
2017-06-16T10:39:19.726Z,16.61
2017-06-16T10:40:28.616Z,16.57
2017-06-16T10:41:37.510Z,16.63
2017-06-16T10:42:46.414Z,16.58
2017-06-16T10:43:55.302Z,16.61
2017-06-16T10:45:04.723Z,16.58
2017-06-16T10:46:13.940Z,16.66
2017-06-16T10:47:23.503Z,16.7
2017-06-16T10:48:32.392Z,16.67
2017-06-16T10:49:41.281Z,16.76
2017-06-16T10:50:50.646Z,16.68
2017-06-16T10:51:59.542Z,16.75
2017-06-16T10:53:08.432Z,16.78
2017-06-16T10:54:17.322Z,16.93
2017-06-16T10:55:26.209Z,16.91
2017-06-16T10:56:35.251Z,16.94
2017-06-16T10:57:44.147Z,16.82
2017-06-16T10:58:53.036Z,16.96
2017-06-16T11:00:01.924Z,16.94
2017-06-16T11:01:10.816Z,17.01
2017-06-16T11:02:20.013Z,17.07
2017-06-16T11:03:28.908Z,17.01
2017-06-16T11:04:38.121Z,17.12
2017-06-16T11:05:47.017Z,17.07
2017-06-16T11:06:56.232Z,17.22
2017-06-16T11:08:05.522Z,17.19
2017-06-16T11:09:14.740Z,17.33
2017-06-16T11:10:23.955Z,17.43
2017-06-16T11:11:32.845Z,17.63
2017-06-16T11:12:42.061Z,17.7
2017-06-16T11:13:51.004Z,17.75
2017-06-16T11:15:00.263Z,17.78
2017-06-16T11:16:09.157Z,17.63
2017-06-16T11:17:18.048Z,17.75
2017-06-16T11:18:26.946Z,17.75
2017-06-16T11:19:36.312Z,17.78
2017-06-16T11:20:45.207Z,17.77
2017-06-16T11:21:54.751Z,17.72
2017-06-16T11:23:03.966Z,17.66
2017-06-16T11:24:13.187Z,17.63
2017-06-16T11:25:22.661Z,17.52
2017-06-16T11:26:31.554Z,17.55
2017-06-16T11:27:40.771Z,17.64
2017-06-16T11:28:49.986Z,17.66
2017-06-16T11:29:59.536Z,17.62
2017-06-16T11:31:08.477Z,17.75
2017-06-16T11:32:17.694Z,17.81
2017-06-16T11:33:26.589Z,17.86
2017-06-16T11:34:35.804Z,17.93
2017-06-16T11:35:44.742Z,17.89
2017-06-16T11:36:54.935Z,17.87
2017-06-16T11:38:03.829Z,17.92
2017-06-16T11:39:12.720Z,17.9
2017-06-16T11:40:21.936Z,17.87
2017-06-16T11:41:31.158Z,17.92
2017-06-16T11:42:40.303Z,17.86
2017-06-16T11:43:49.207Z,17.96
2017-06-16T11:44:58.099Z,18.05
2017-06-16T11:46:06.992Z,18.12
2017-06-16T11:47:16.203Z,18.12
2017-06-16T11:48:26.019Z,18.17
2017-06-16T11:49:34.908Z,18.15
2017-06-16T11:50:44.127Z,18.21
2017-06-16T11:51:53.021Z,18.18
2017-06-16T11:53:02.237Z,18.23
2017-06-16T11:54:11.276Z,18.21
2017-06-16T11:55:20.164Z,18.32
2017-06-16T11:56:29.057Z,18.42
2017-06-16T11:57:37.992Z,18.44
2017-06-16T11:58:46.903Z,18.47
2017-06-16T11:59:55.950Z,18.51
2017-06-16T12:01:04.897Z,18.52
2017-06-16T12:02:14.118Z,18.54
2017-06-16T12:03:23.010Z,18.62
2017-06-16T12:04:32.227Z,18.47
2017-06-16T12:05:41.596Z,18.41
2017-06-16T12:06:51.173Z,18.37
2017-06-16T12:08:00.063Z,18.27
2017-06-16T12:09:08.954Z,18.33
2017-06-16T12:10:17.847Z,18.32
2017-06-16T12:11:26.792Z,18.29
2017-06-16T12:12:36.014Z,18.27
2017-06-16T12:13:44.919Z,18.29
2017-06-16T12:14:54.786Z,18.41
2017-06-16T12:16:03.678Z,18.52
2017-06-16T12:17:13.045Z,18.52
2017-06-16T12:18:21.941Z,18.52
2017-06-16T12:19:31.161Z,18.6
2017-06-16T12:20:40.701Z,18.75
2017-06-16T12:21:49.925Z,19.02
2017-06-16T12:23:00.000Z,18.92
2017-06-16T12:24:09.221Z,18.94
2017-06-16T12:25:18.114Z,18.91
2017-06-16T12:26:27.016Z,18.92
2017-06-16T12:27:35.933Z,18.84
2017-06-16T12:28:45.419Z,18.87
2017-06-16T12:29:54.638Z,18.72
2017-06-16T12:31:04.180Z,18.62
2017-06-16T12:32:13.077Z,18.55
2017-06-16T12:33:21.968Z,18.45
2017-06-16T12:34:31.338Z,18.42
2017-06-16T12:35:40.234Z,18.48
2017-06-16T12:36:49.127Z,18.55
2017-06-16T12:37:58.019Z,18.47
2017-06-16T12:39:06.918Z,18.44
2017-06-16T12:40:16.290Z,18.58
2017-06-16T12:41:25.507Z,18.55
2017-06-16T12:42:34.402Z,18.5
2017-06-16T12:43:43.296Z,18.57
2017-06-16T12:44:52.187Z,18.55
2017-06-16T12:46:01.453Z,18.55
2017-06-16T12:47:10.383Z,18.62
2017-06-16T12:48:19.274Z,18.7
2017-06-16T12:49:28.171Z,18.66
2017-06-16T12:50:37.388Z,18.8
2017-06-16T12:51:46.933Z,18.81
2017-06-16T12:52:56.804Z,18.9
2017-06-16T12:54:06.347Z,18.92
2017-06-16T12:55:15.243Z,18.81
2017-06-16T12:56:24.790Z,18.84
2017-06-16T12:57:34.163Z,18.75
2017-06-16T12:58:43.705Z,18.55
2017-06-16T12:59:52.927Z,18.41
2017-06-16T13:01:02.145Z,18.29
2017-06-16T13:02:11.040Z,18.26
2017-06-16T13:03:20.032Z,18.12
2017-06-16T13:04:28.926Z,17.97
2017-06-16T13:05:38.146Z,17.75
2017-06-16T13:06:47.037Z,17.51
2017-06-16T13:07:56.902Z,17.43
2017-06-16T13:09:06.275Z,17.06
2017-06-16T13:10:15.176Z,16.88
2017-06-16T13:11:24.090Z,16.68
2017-06-16T13:12:32.979Z,16.53
2017-06-16T13:13:41.870Z,16.5
2017-06-16T13:14:51.064Z,16.39
2017-06-16T13:16:00.279Z,16.38
2017-06-16T13:17:09.168Z,16.43
2017-06-16T13:18:18.385Z,16.38
2017-06-16T13:19:27.271Z,16.68
2017-06-16T13:20:36.464Z,16.46
2017-06-16T13:21:45.361Z,16.49
2017-06-16T13:22:54.612Z,16.39
2017-06-16T13:24:04.158Z,16.58
2017-06-16T13:25:13.373Z,16.48
2017-06-16T13:26:22.417Z,16.73
2017-06-16T13:27:31.305Z,16.64
2017-06-16T13:28:40.193Z,16.66
2017-06-16T13:29:49.088Z,16.75
2017-06-16T13:30:58.626Z,16.91
2017-06-16T13:32:07.725Z,16.88
2017-06-16T13:33:16.615Z,16.94
2017-06-16T13:34:25.504Z,16.93
2017-06-16T13:35:34.397Z,17.07
2017-06-16T13:36:43.287Z,17.14
2017-06-16T13:37:52.754Z,17.16
2017-06-16T13:39:01.965Z,17.15
2017-06-16T13:40:10.859Z,17.21
2017-06-16T13:41:20.409Z,17.16
2017-06-16T13:42:29.300Z,17.15
2017-06-16T13:43:38.713Z,17.16
2017-06-16T13:44:47.950Z,17.26
2017-06-16T13:45:57.167Z,17.33
2017-06-16T13:47:06.384Z,17.38
2017-06-16T13:48:15.280Z,17.49
2017-06-16T13:49:24.415Z,17.46
2017-06-16T13:50:33.644Z,17.36
2017-06-16T13:51:42.533Z,17.33
2017-06-16T13:52:51.421Z,17.26
2017-06-16T13:54:00.304Z,17.36
2017-06-16T13:55:09.341Z,17.21
2017-06-16T13:56:18.556Z,17.23
2017-06-16T13:57:27.774Z,17.19
2017-06-16T13:58:36.986Z,17.18
2017-06-16T13:59:45.878Z,17.28
2017-06-16T14:00:55.088Z,17.19
2017-06-16T14:02:03.980Z,17.12
2017-06-16T14:03:13.516Z,17.16
2017-06-16T14:04:22.408Z,17.22
2017-06-16T14:05:31.298Z,17.3
2017-06-16T14:06:40.564Z,17.37
2017-06-16T14:07:49.449Z,17.31
2017-06-16T14:08:58.994Z,17.31
2017-06-16T14:10:08.542Z,17.44
2017-06-16T14:11:17.432Z,17.44
2017-06-16T14:12:26.671Z,17.48
2017-06-16T14:13:35.559Z,17.51
2017-06-16T14:14:44.777Z,17.54
2017-06-16T14:15:53.665Z,17.51
2017-06-16T14:17:02.886Z,17.51
2017-06-16T14:18:12.252Z,17.52
2017-06-16T14:19:21.473Z,17.52
2017-06-16T14:20:30.367Z,17.44
2017-06-16T14:21:39.258Z,17.48
2017-06-16T14:22:49.124Z,17.43
2017-06-16T14:23:59.089Z,17.36
2017-06-16T14:25:08.303Z,17.33
2017-06-16T14:26:17.192Z,17.34
2017-06-16T14:27:26.092Z,17.4
2017-06-16T14:28:34.981Z,17.46
2017-06-16T14:29:44.244Z,17.31
2017-06-16T14:30:53.137Z,17.26
2017-06-16T14:32:02.353Z,17.16
2017-06-16T14:33:11.579Z,17.16
2017-06-16T14:34:20.470Z,17.33
2017-06-16T14:35:29.409Z,17.3
2017-06-16T14:36:38.295Z,17.3
2017-06-16T14:37:47.193Z,17.34
2017-06-16T14:38:56.081Z,17.28
2017-06-16T14:40:04.971Z,17.31
2017-06-16T14:41:14.118Z,17.16
2017-06-16T14:42:23.006Z,17.18
2017-06-16T14:43:31.897Z,17.18
2017-06-16T14:44:40.789Z,17.08
2017-06-16T14:45:49.684Z,17.16
2017-06-16T14:46:59.103Z,17.25
2017-06-16T14:48:07.996Z,17.22
2017-06-16T14:49:17.211Z,17.31
2017-06-16T14:50:26.428Z,17.31
2017-06-16T14:51:35.647Z,17.46